createdAt,value
2017-12-25T00:00:39.897Z,1005.66
2017-12-25T00:01:49.694Z,1005.69
2017-12-25T00:02:59.474Z,1005.75
2017-12-25T00:04:09.567Z,1005.71
2017-12-25T00:05:19.363Z,1005.76
2017-12-25T00:06:29.427Z,1005.81
2017-12-25T00:07:39.212Z,1005.82
2017-12-25T00:08:49.278Z,1005.74
2017-12-25T00:09:58.855Z,1005.85
2017-12-25T00:11:08.957Z,1005.9
2017-12-25T00:12:19.019Z,1005.87
2017-12-25T00:13:29.072Z,1005.84
2017-12-25T00:14:38.860Z,1005.83
2017-12-25T00:15:48.915Z,1005.83
2017-12-25T00:16:58.964Z,1005.84
2017-12-25T00:18:08.766Z,1005.86
2017-12-25T00:19:18.547Z,1005.83
2017-12-25T00:20:28.584Z,1005.9
2017-12-25T00:21:38.702Z,1005.85
2017-12-25T00:22:48.500Z,1005.85
2017-12-25T00:23:58.566Z,1005.85
2017-12-25T00:25:08.632Z,1005.82
2017-12-25T00:26:18.675Z,1005.79
2017-12-25T00:27:28.745Z,1005.8
2017-12-25T00:28:38.798Z,1005.82
2017-12-25T00:29:48.846Z,1005.78
2017-12-25T00:30:58.894Z,1005.8
2017-12-25T00:32:08.947Z,1005.82
2017-12-25T00:33:18.790Z,1005.74
2017-12-25T00:34:28.831Z,1005.79
2017-12-25T00:35:38.871Z,1005.78
2017-12-25T00:36:48.675Z,1005.8
2017-12-25T00:37:58.749Z,1005.8
2017-12-25T00:39:08.801Z,1005.78
2017-12-25T00:40:18.603Z,1005.75
2017-12-25T00:41:28.650Z,1005.73
2017-12-25T00:42:38.436Z,1005.71
2017-12-25T00:43:48.217Z,1005.73
2017-12-25T00:44:58.001Z,1005.77
2017-12-25T00:46:08.072Z,1005.71
2017-12-25T00:47:18.165Z,1005.71
2017-12-25T00:48:27.916Z,1005.73
2017-12-25T00:49:37.699Z,1005.71
2017-12-25T00:50:47.744Z,1005.72
2017-12-25T00:51:57.525Z,1005.7
2017-12-25T00:53:07.320Z,1005.7
2017-12-25T00:54:17.366Z,1005.73
2017-12-25T00:55:27.408Z,1005.72
2017-12-25T00:56:37.468Z,1005.73
2017-12-25T00:57:47.532Z,1005.76
2017-12-25T00:58:57.580Z,1005.74
2017-12-25T01:00:07.641Z,1005.75
2017-12-25T01:01:17.440Z,1005.72
2017-12-25T01:02:26.976Z,1005.76
2017-12-25T01:03:37.024Z,1005.69
2017-12-25T01:04:47.082Z,1005.72
2017-12-25T01:05:57.150Z,1005.69
2017-12-25T01:07:07.194Z,1005.7
2017-12-25T01:08:16.978Z,1005.68
2017-12-25T01:09:27.020Z,1005.69
2017-12-25T01:10:37.068Z,1005.71
2017-12-25T01:11:47.118Z,1005.73
2017-12-25T01:12:57.170Z,1005.72
2017-12-25T01:14:07.222Z,1005.76
2017-12-25T01:15:17.314Z,1005.71
2017-12-25T01:16:27.367Z,1005.71
2017-12-25T01:17:37.433Z,1005.74
2017-12-25T01:18:47.236Z,1005.72
2017-12-25T01:19:57.368Z,1005.68
2017-12-25T01:21:07.436Z,1005.68
2017-12-25T01:22:17.235Z,1005.71
2017-12-25T01:23:27.308Z,1005.72
2017-12-25T01:24:37.078Z,1005.7
2017-12-25T01:25:46.604Z,1005.69
2017-12-25T01:26:56.647Z,1005.69
2017-12-25T01:28:06.711Z,1005.77
2017-12-25T01:29:16.775Z,1005.74
2017-12-25T01:30:26.572Z,1005.68
2017-12-25T01:31:36.634Z,1005.65
2017-12-25T01:32:46.685Z,1005.67
2017-12-25T01:33:56.481Z,1005.64
2017-12-25T01:35:06.543Z,1005.62
2017-12-25T01:36:16.337Z,1005.66
2017-12-25T01:37:26.147Z,1005.64
2017-12-25T01:38:36.180Z,1005.61
2017-12-25T01:39:45.981Z,1005.62
2017-12-25T01:40:55.514Z,1005.71
2017-12-25T01:42:05.306Z,1005.66
2017-12-25T01:43:15.152Z,1005.64
2017-12-25T01:44:24.940Z,1005.65
2017-12-25T01:45:34.975Z,1005.67
2017-12-25T01:46:45.019Z,1005.66
2017-12-25T01:47:55.068Z,1005.68
2017-12-25T01:49:04.855Z,1005.62
2017-12-25T01:50:14.903Z,1005.61
2017-12-25T01:51:24.956Z,1005.58
2017-12-25T01:52:35.018Z,1005.58
2017-12-25T01:53:45.300Z,1005.6
2017-12-25T01:54:55.100Z,1005.56
2017-12-25T01:56:05.845Z,1005.57
2017-12-25T01:57:15.897Z,1005.58
2017-12-25T01:58:25.954Z,1005.61
2017-12-25T01:59:35.997Z,1005.63
2017-12-25T02:00:45.809Z,1005.7
2017-12-25T02:01:55.582Z,1005.68
2017-12-25T02:03:05.647Z,1005.66
2017-12-25T02:04:15.699Z,1005.63
2017-12-25T02:05:25.738Z,1005.62
2017-12-25T02:06:35.515Z,1005.64
2017-12-25T02:07:45.314Z,1005.66
2017-12-25T02:08:55.362Z,1005.64
2017-12-25T02:10:05.419Z,1005.67
2017-12-25T02:11:15.458Z,1005.66
2017-12-25T02:12:25.511Z,1005.71
2017-12-25T02:13:35.566Z,1005.74
2017-12-25T02:14:45.113Z,1005.72
2017-12-25T02:15:55.175Z,1005.74
2017-12-25T02:17:04.950Z,1005.71
2017-12-25T02:18:15.007Z,1005.7
2017-12-25T02:19:24.800Z,1005.66
2017-12-25T02:20:34.838Z,1005.71
2017-12-25T02:21:44.624Z,1005.66
2017-12-25T02:22:54.674Z,1005.66
2017-12-25T02:24:04.512Z,1005.64
2017-12-25T02:25:14.305Z,1005.66
2017-12-25T02:26:24.358Z,1005.65
2017-12-25T02:27:33.906Z,1005.67
2017-12-25T02:28:43.951Z,1005.6
2017-12-25T02:29:53.752Z,1005.61
2017-12-25T02:31:03.799Z,1005.69
2017-12-25T02:32:13.648Z,1005.66
2017-12-25T02:33:23.683Z,1005.65
2017-12-25T02:34:33.731Z,1005.65
2017-12-25T02:35:43.548Z,1005.71
2017-12-25T02:36:53.344Z,1005.62
2017-12-25T02:38:03.500Z,1005.68
2017-12-25T02:39:13.562Z,1005.64
2017-12-25T02:40:23.666Z,1005.62
2017-12-25T02:41:33.729Z,1005.65
2017-12-25T02:42:43.778Z,1005.6
2017-12-25T02:43:53.837Z,1005.68
2017-12-25T02:45:03.621Z,1005.67
2017-12-25T02:46:13.697Z,1005.7
2017-12-25T02:47:23.552Z,1005.66
2017-12-25T02:48:33.951Z,1005.7
2017-12-25T02:49:44.020Z,1005.66
2017-12-25T02:50:54.094Z,1005.67
2017-12-25T02:52:03.900Z,1005.61
2017-12-25T02:53:13.969Z,1005.6
2017-12-25T02:54:24.016Z,1005.61
2017-12-25T02:55:34.177Z,1005.61
2017-12-25T02:56:44.237Z,1005.62
2017-12-25T02:57:54.024Z,1005.58
2017-12-25T02:59:03.827Z,1005.64
2017-12-25T03:00:13.893Z,1005.61
2017-12-25T03:01:23.674Z,1005.62
2017-12-25T03:02:33.730Z,1005.64
2017-12-25T03:34:13.018Z,1005.8
2017-12-25T03:35:23.072Z,1005.81
2017-12-25T03:36:33.106Z,1005.74
2017-12-25T03:37:43.141Z,1005.76
2017-12-25T03:38:53.187Z,1005.71
2017-12-25T03:40:03.222Z,1005.73
2017-12-25T03:41:13.265Z,1005.76
2017-12-25T03:42:23.061Z,1005.72
2017-12-25T03:43:32.912Z,1005.75
2017-12-25T03:44:42.957Z,1005.81
2017-12-25T03:45:52.993Z,1005.77
2017-12-25T03:47:03.038Z,1005.78
2017-12-25T03:48:13.085Z,1005.79
2017-12-25T03:49:22.880Z,1005.79
2017-12-25T03:50:32.699Z,1005.83
2017-12-25T03:51:42.736Z,1005.8
2017-12-25T03:52:52.538Z,1005.81
2017-12-25T03:54:02.594Z,1005.83
2017-12-25T03:55:12.392Z,1005.86
2017-12-25T03:56:22.182Z,1005.89
2017-12-25T03:57:31.974Z,1005.89
2017-12-25T03:58:42.024Z,1005.93
2017-12-25T03:59:52.078Z,1005.93
2017-12-25T04:01:01.865Z,1005.9
2017-12-25T04:02:11.910Z,1005.9
2017-12-25T04:03:21.958Z,1005.88
2017-12-25T04:04:31.991Z,1005.92
2017-12-25T04:05:42.032Z,1005.93
2017-12-25T04:06:51.578Z,1005.88
2017-12-25T04:08:01.655Z,1005.9
2017-12-25T04:09:11.716Z,1005.92
2017-12-25T04:10:21.513Z,1005.89
2017-12-25T04:11:31.571Z,1005.89
2017-12-25T04:12:41.627Z,1005.96
2017-12-25T04:13:51.674Z,1005.91
2017-12-25T04:15:01.776Z,1005.96
2017-12-25T04:16:11.833Z,1006
2017-12-25T04:17:21.354Z,1005.97
2017-12-25T04:18:30.900Z,1005.91
2017-12-25T04:19:40.945Z,1005.95
2017-12-25T04:20:51.034Z,1005.96
2017-12-25T04:22:01.095Z,1005.97
2017-12-25T04:23:11.141Z,1005.96
2017-12-25T04:24:21.187Z,1005.92
2017-12-25T04:25:31.228Z,1005.92
2017-12-25T04:26:41.280Z,1005.89
2017-12-25T04:27:51.062Z,1005.88
2017-12-25T04:29:00.845Z,1005.9
2017-12-25T04:30:10.653Z,1005.86
2017-12-25T04:31:20.698Z,1005.89
2017-12-25T04:32:30.762Z,1005.88
2017-12-25T04:33:40.551Z,1005.88
2017-12-25T04:34:50.599Z,1005.89
2017-12-25T04:36:00.659Z,1005.87
2017-12-25T04:37:10.453Z,1005.88
2017-12-25T04:38:20.231Z,1005.82
2017-12-25T04:39:30.286Z,1005.82
2017-12-25T04:40:40.332Z,1005.84
2017-12-25T04:41:50.112Z,1005.87
2017-12-25T04:43:00.178Z,1005.87
2017-12-25T04:44:10.228Z,1005.86
2017-12-25T04:45:20.337Z,1005.85
2017-12-25T04:46:30.379Z,1005.83
2017-12-25T04:47:40.416Z,1005.85
2017-12-25T04:48:50.221Z,1005.83
2017-12-25T04:50:00.308Z,1005.88
2017-12-25T04:51:10.099Z,1005.86
2017-12-25T04:52:19.891Z,1005.84
2017-12-25T04:53:29.958Z,1005.82
2017-12-25T04:54:40.005Z,1005.83
2017-12-25T04:55:50.069Z,1005.87
2017-12-25T04:57:00.124Z,1005.9
2017-12-25T04:58:09.921Z,1005.91
2017-12-25T04:59:19.712Z,1005.89
2017-12-25T05:00:29.759Z,1005.92
2017-12-25T05:01:39.805Z,1005.91
2017-12-25T05:02:49.869Z,1005.88
2017-12-25T05:03:59.665Z,1005.92
2017-12-25T05:05:09.467Z,1005.9
2017-12-25T05:06:19.524Z,1005.89
2017-12-25T05:07:29.330Z,1005.89
2017-12-25T05:08:39.130Z,1005.85
2017-12-25T05:09:49.189Z,1005.84
2017-12-25T05:10:59.232Z,1005.91
2017-12-25T05:12:09.289Z,1005.83
2017-12-25T05:13:19.092Z,1005.84
2017-12-25T05:14:29.136Z,1005.85
2017-12-25T05:15:39.187Z,1005.87
2017-12-25T05:16:49.006Z,1005.88
2017-12-25T05:17:59.070Z,1005.87
2017-12-25T05:19:09.124Z,1005.85
2017-12-25T05:20:18.916Z,1005.84
2017-12-25T05:21:28.965Z,1005.87
2017-12-25T05:22:39.025Z,1005.88
2017-12-25T05:23:48.813Z,1005.84
2017-12-25T05:24:58.925Z,1005.9
2017-12-25T05:26:08.982Z,1005.86
2017-12-25T05:27:19.040Z,1005.86
2017-12-25T05:28:29.073Z,1005.81
2017-12-25T05:29:39.129Z,1005.79
2017-12-25T05:30:48.920Z,1005.77
2017-12-25T05:31:58.450Z,1005.79
2017-12-25T05:33:08.237Z,1005.83
2017-12-25T05:34:18.499Z,1005.82
2017-12-25T05:35:28.281Z,1005.83
2017-12-25T05:36:38.061Z,1005.85
2017-12-25T05:37:48.107Z,1005.83
2017-12-25T05:38:58.176Z,1005.8
2017-12-25T05:40:07.970Z,1005.84
2017-12-25T05:41:18.055Z,1005.81
2017-12-25T05:42:27.869Z,1005.84
2017-12-25T05:43:37.918Z,1005.82
2017-12-25T05:44:47.971Z,1005.82
2017-12-25T05:45:58.019Z,1005.84
2017-12-25T05:47:07.808Z,1005.85
2017-12-25T05:48:17.922Z,1005.83
2017-12-25T05:49:27.987Z,1005.83
2017-12-25T05:50:37.778Z,1005.82
2017-12-25T05:51:47.841Z,1005.81
2017-12-25T05:52:57.955Z,1005.83
2017-12-25T05:54:08.055Z,1005.83
2017-12-25T05:55:17.846Z,1005.82
2017-12-25T05:56:27.888Z,1005.84
2017-12-25T05:57:37.943Z,1005.8
2017-12-25T05:58:48.002Z,1005.82
2017-12-25T05:59:58.074Z,1005.79
2017-12-25T06:01:07.869Z,1005.78
2017-12-25T06:02:17.923Z,1005.77
2017-12-25T06:03:27.979Z,1005.78
2017-12-25T06:04:37.782Z,1005.78
2017-12-25T06:05:47.821Z,1005.74
2017-12-25T06:06:57.870Z,1005.72
2017-12-25T06:08:07.931Z,1005.75
2017-12-25T06:09:17.987Z,1005.69
2017-12-25T06:10:27.783Z,1005.68
2017-12-25T06:11:37.568Z,1005.66
2017-12-25T06:12:47.614Z,1005.69
2017-12-25T06:13:57.683Z,1005.64
2017-12-25T06:15:07.208Z,1005.64
2017-12-25T06:16:17.258Z,1005.67
2017-12-25T06:17:27.373Z,1005.7
2017-12-25T06:18:37.422Z,1005.71
2017-12-25T06:19:47.463Z,1005.7
2017-12-25T06:20:57.506Z,1005.68
2017-12-25T06:22:07.585Z,1005.66
2017-12-25T06:23:17.633Z,1005.68
2017-12-25T06:24:27.434Z,1005.66
2017-12-25T06:25:37.487Z,1005.66
2017-12-25T06:26:47.269Z,1005.66
2017-12-25T06:27:57.322Z,1005.62
2017-12-25T06:29:07.373Z,1005.6
2017-12-25T06:30:16.893Z,1005.64
2017-12-25T06:31:26.928Z,1005.62
2017-12-25T06:32:36.975Z,1005.61
2017-12-25T06:33:46.790Z,1005.6
2017-12-25T06:34:56.577Z,1005.57
2017-12-25T06:36:06.368Z,1005.59
2017-12-25T06:37:16.176Z,1005.59
2017-12-25T06:38:26.257Z,1005.59
2017-12-25T06:39:36.307Z,1005.56
2017-12-25T06:40:46.369Z,1005.6
2017-12-25T06:41:56.413Z,1005.58
2017-12-25T06:43:06.452Z,1005.61
2017-12-25T06:44:16.243Z,1005.54
2017-12-25T06:45:26.286Z,1005.58
2017-12-25T06:46:36.394Z,1005.59
2017-12-25T06:47:46.460Z,1005.56
2017-12-25T06:48:56.569Z,1005.59
2017-12-25T06:50:06.616Z,1005.56
2017-12-25T06:51:16.670Z,1005.57
2017-12-25T06:52:26.472Z,1005.6
2017-12-25T06:53:36.519Z,1005.55
2017-12-25T06:54:46.570Z,1005.56
2017-12-25T06:55:56.352Z,1005.56
2017-12-25T06:57:06.154Z,1005.52
2017-12-25T06:58:16.245Z,1005.56
2017-12-25T06:59:26.036Z,1005.59
2017-12-25T07:00:35.900Z,1005.58
2017-12-25T07:01:45.943Z,1005.57
2017-12-25T07:02:55.717Z,1005.57
2017-12-25T07:04:05.506Z,1005.58
2017-12-25T07:05:15.300Z,1005.56
2017-12-25T07:06:25.083Z,1005.57
2017-12-25T07:07:35.152Z,1005.6
2017-12-25T07:08:44.939Z,1005.58
2017-12-25T07:09:55.048Z,1005.63
2017-12-25T07:11:05.092Z,1005.62
2017-12-25T07:12:14.961Z,1005.62
2017-12-25T07:13:24.504Z,1005.6
2017-12-25T07:14:34.543Z,1005.61
2017-12-25T07:15:44.592Z,1005.6
2017-12-25T07:16:54.660Z,1005.6
2017-12-25T07:18:05.125Z,1005.6
2017-12-25T07:19:14.923Z,1005.62
2017-12-25T07:20:24.973Z,1005.59
2017-12-25T07:21:34.825Z,1005.61
2017-12-25T07:22:44.873Z,1005.64
2017-12-25T07:23:54.924Z,1005.58
2017-12-25T07:25:04.997Z,1005.62
2017-12-25T07:26:15.142Z,1005.63
2017-12-25T07:27:25.184Z,1005.61
2017-12-25T07:28:34.980Z,1005.61
2017-12-25T07:29:45.023Z,1005.59
2017-12-25T07:30:55.130Z,1005.57
2017-12-25T07:32:05.189Z,1005.56
2017-12-25T07:33:15.030Z,1005.56
2017-12-25T07:34:25.084Z,1005.6
2017-12-25T07:35:35.146Z,1005.63
2017-12-25T07:36:45.205Z,1005.63
2017-12-25T07:37:55.013Z,1005.63
2017-12-25T07:39:05.047Z,1005.68
2017-12-25T07:40:14.578Z,1005.65
2017-12-25T07:41:24.644Z,1005.68
2017-12-25T07:42:34.702Z,1005.7
2017-12-25T07:43:44.496Z,1005.74
2017-12-25T07:44:54.555Z,1005.73
2017-12-25T07:46:04.606Z,1005.79
2017-12-25T07:47:14.388Z,1005.78
2017-12-25T07:48:24.190Z,1005.79
2017-12-25T07:49:33.968Z,1005.82
2017-12-25T07:50:44.029Z,1005.79
2017-12-25T07:51:54.100Z,1005.8
2017-12-25T07:53:04.154Z,1005.82
2017-12-25T07:54:13.942Z,1005.79
2017-12-25T07:55:23.993Z,1005.83
2017-12-25T07:56:33.534Z,1005.81
2017-12-25T07:57:43.574Z,1005.82
2017-12-25T07:58:53.642Z,1005.78
2017-12-25T08:00:03.711Z,1005.84
2017-12-25T08:01:13.766Z,1005.82
2017-12-25T08:02:23.811Z,1005.85
2017-12-25T08:03:33.666Z,1005.81
2017-12-25T08:04:43.459Z,1005.79
2017-12-25T08:05:53.244Z,1005.8
2017-12-25T08:07:03.036Z,1005.81
2017-12-25T08:08:13.098Z,1005.83
2017-12-25T08:09:22.690Z,1005.83
2017-12-25T08:10:32.768Z,1005.79
2017-12-25T08:11:42.822Z,1005.79
2017-12-25T08:12:53.144Z,1005.79
2017-12-25T08:14:02.946Z,1005.77
2017-12-25T08:15:13.013Z,1005.76
2017-12-25T08:16:23.057Z,1005.75
2017-12-25T08:17:33.123Z,1005.79
2017-12-25T08:18:43.172Z,1005.76
2017-12-25T08:19:53.216Z,1005.78
2017-12-25T08:21:03.254Z,1005.81
2017-12-25T08:22:13.057Z,1005.82
2017-12-25T08:23:22.864Z,1005.82
2017-12-25T08:24:32.980Z,1005.81
2017-12-25T08:25:43.035Z,1005.79
2017-12-25T08:26:53.136Z,1005.81
2017-12-25T08:28:03.259Z,1005.76
2017-12-25T08:29:12.788Z,1005.77
2017-12-25T08:30:22.340Z,1005.77
2017-12-25T08:31:32.414Z,1005.78
2017-12-25T08:32:42.277Z,1005.8
2017-12-25T08:33:52.326Z,1005.78
2017-12-25T08:35:02.137Z,1005.8
2017-12-25T08:36:12.218Z,1005.77
2017-12-25T08:37:22.021Z,1005.82
2017-12-25T08:38:32.132Z,1005.83
2017-12-25T08:39:42.175Z,1005.84
2017-12-25T08:40:52.002Z,1005.85
2017-12-25T08:42:02.059Z,1005.84
2017-12-25T08:43:12.157Z,1005.86
2017-12-25T08:44:22.290Z,1005.85
2017-12-25T08:45:32.106Z,1005.87
2017-12-25T08:46:42.166Z,1005.88
2017-12-25T08:47:52.285Z,1005.86
2017-12-25T08:49:02.342Z,1005.86
2017-12-25T08:50:12.396Z,1005.87
2017-12-25T08:51:22.477Z,1005.89
2017-12-25T08:52:32.026Z,1005.86
2017-12-25T08:53:42.077Z,1005.83
2017-12-25T08:54:52.156Z,1005.82
2017-12-25T08:56:02.214Z,1005.83
2017-12-25T08:57:12.001Z,1005.81
2017-12-25T08:58:22.062Z,1005.78
2017-12-25T08:59:32.127Z,1005.78
2017-12-25T09:00:42.190Z,1005.77
2017-12-25T09:01:52.285Z,1005.76
2017-12-25T09:03:02.346Z,1005.77
2017-12-25T09:04:12.401Z,1005.77
2017-12-25T09:05:21.932Z,1005.71
2017-12-25T09:06:31.995Z,1005.75
2017-12-25T09:07:41.770Z,1005.72
2017-12-25T09:08:51.823Z,1005.7
2017-12-25T09:10:01.876Z,1005.7
2017-12-25T09:11:11.662Z,1005.7
2017-12-25T09:12:21.725Z,1005.71
2017-12-25T09:13:31.789Z,1005.73
2017-12-25T09:14:41.591Z,1005.69
2017-12-25T09:15:51.394Z,1005.7
2017-12-25T09:17:01.456Z,1005.66
2017-12-25T09:18:11.516Z,1005.64
2017-12-25T09:19:21.318Z,1005.64
2017-12-25T09:20:31.100Z,1005.63
2017-12-25T09:21:40.922Z,1005.62
2017-12-25T09:22:50.973Z,1005.62
2017-12-25T09:24:00.785Z,1005.62
2017-12-25T09:25:10.572Z,1005.61
2017-12-25T09:26:20.391Z,1005.6
2017-12-25T09:27:30.450Z,1005.62
2017-12-25T09:28:40.534Z,1005.54
2017-12-25T09:29:50.579Z,1005.59
2017-12-25T09:31:00.386Z,1005.57
2017-12-25T09:32:10.432Z,1005.59
2017-12-25T09:33:20.489Z,1005.55
2017-12-25T09:34:30.546Z,1005.58
2017-12-25T09:35:40.685Z,1005.52
2017-12-25T09:36:50.541Z,1005.53
2017-12-25T09:38:00.608Z,1005.54
2017-12-25T09:39:10.662Z,1005.56
2017-12-25T09:40:20.450Z,1005.53
2017-12-25T09:41:31.160Z,1005.52
2017-12-25T09:42:41.237Z,1005.5
2017-12-25T09:43:51.285Z,1005.53
2017-12-25T09:45:01.371Z,1005.56
2017-12-25T09:46:11.439Z,1005.45
2017-12-25T09:47:21.501Z,1005.45
2017-12-25T09:48:31.589Z,1005.45
2017-12-25T09:49:41.678Z,1005.47
2017-12-25T09:50:51.476Z,1005.44
2017-12-25T09:52:01.544Z,1005.49
2017-12-25T09:53:11.352Z,1005.51
2017-12-25T09:54:21.410Z,1005.44
2017-12-25T09:55:31.486Z,1005.44
2017-12-25T09:56:41.336Z,1005.38
2017-12-25T09:57:51.395Z,1005.37
2017-12-25T09:59:01.484Z,1005.33
2017-12-25T10:00:11.527Z,1005.28
2017-12-25T10:01:21.687Z,1005.26
2017-12-25T10:02:31.749Z,1005.27
2017-12-25T10:03:41.847Z,1005.22
2017-12-25T10:04:51.927Z,1005.18
2017-12-25T10:06:01.724Z,1005.2
2017-12-25T10:07:11.791Z,1005.22
2017-12-25T10:08:21.867Z,1005.24
2017-12-25T10:09:31.940Z,1005.21
2017-12-25T10:10:42.015Z,1005.19
2017-12-25T10:11:52.083Z,1005.2
2017-12-25T10:13:02.160Z,1005.15
2017-12-25T10:14:11.970Z,1005.16
2017-12-25T10:15:21.772Z,1005.12
2017-12-25T10:16:31.568Z,1005.14
2017-12-25T10:17:41.415Z,1005.19
2017-12-25T10:18:51.470Z,1005.12
2017-12-25T10:20:01.534Z,1005.14
2017-12-25T10:21:11.095Z,1005.09
2017-12-25T10:22:21.151Z,1005.05
2017-12-25T10:23:31.220Z,1005.03
2017-12-25T10:24:41.009Z,1005.01
2017-12-25T10:25:50.797Z,1004.96
2017-12-25T10:27:00.632Z,1004.98
2017-12-25T10:28:11.339Z,1004.93
2017-12-25T10:29:21.204Z,1004.94
2017-12-25T10:30:31.256Z,1004.94
2017-12-25T10:31:41.311Z,1004.95
2017-12-25T10:32:51.374Z,1004.91
2017-12-25T10:34:01.479Z,1004.91
2017-12-25T10:35:11.584Z,1004.9
2017-12-25T10:36:21.662Z,1004.91
2017-12-25T10:37:31.474Z,1004.87
2017-12-25T10:38:41.292Z,1004.84
2017-12-25T10:39:50.555Z,1004.88
2017-12-25T10:41:00.636Z,1004.8
2017-12-25T10:42:10.694Z,1004.77
2017-12-25T10:43:20.759Z,1004.77
2017-12-25T10:44:30.824Z,1004.79
2017-12-25T10:45:40.880Z,1004.72
2017-12-25T10:46:50.930Z,1004.67
2017-12-25T10:48:01.011Z,1004.69
2017-12-25T10:49:10.796Z,1004.67
2017-12-25T10:50:20.612Z,1004.65
2017-12-25T10:51:30.652Z,1004.67
2017-12-25T10:52:40.444Z,1004.61
2017-12-25T10:53:50.535Z,1004.61
2017-12-25T10:55:00.330Z,1004.59
2017-12-25T10:56:10.420Z,1004.54
2017-12-25T10:57:20.212Z,1004.54
2017-12-25T10:58:30.305Z,1004.5
2017-12-25T10:59:40.387Z,1004.49
2017-12-25T11:00:50.456Z,1004.43
2017-12-25T11:02:00.257Z,1004.42
2017-12-25T11:03:10.307Z,1004.37
2017-12-25T11:04:20.428Z,1004.34
2017-12-25T11:05:31.324Z,1004.33
2017-12-25T11:06:41.452Z,1004.34
2017-12-25T11:07:51.514Z,1004.3
2017-12-25T11:09:01.319Z,1004.29
2017-12-25T11:10:10.841Z,1004.27
2017-12-25T11:11:20.902Z,1004.28
2017-12-25T11:12:30.444Z,1004.24
2017-12-25T11:13:40.024Z,1004.25
2017-12-25T11:14:49.834Z,1004.18
2017-12-25T11:15:59.953Z,1004.18
2017-12-25T11:17:10.028Z,1004.18
2017-12-25T11:18:19.828Z,1004.11
2017-12-25T11:19:29.924Z,1004.05
2017-12-25T11:20:39.737Z,1004.04
2017-12-25T11:21:49.587Z,1004.01
2017-12-25T11:22:59.389Z,1004.01
2017-12-25T11:24:10.082Z,1003.97
2017-12-25T11:25:19.891Z,1003.97
2017-12-25T11:26:29.710Z,1003.95
2017-12-25T11:27:39.773Z,1003.9
2017-12-25T11:28:49.900Z,1003.92
2017-12-25T11:29:59.960Z,1003.88
2017-12-25T11:31:09.756Z,1003.9
2017-12-25T11:32:19.284Z,1003.86
2017-12-25T11:33:29.082Z,1003.83
2017-12-25T11:34:38.944Z,1003.81
2017-12-25T11:35:49.080Z,1003.8
2017-12-25T11:36:58.406Z,1003.73
2017-12-25T11:38:08.476Z,1003.69
2017-12-25T11:39:18.541Z,1003.66
2017-12-25T11:40:28.612Z,1003.63
2017-12-25T11:41:38.398Z,1003.59
2017-12-25T11:42:48.460Z,1003.57
2017-12-25T11:43:58.541Z,1003.57
2017-12-25T11:45:08.681Z,1003.59
2017-12-25T11:46:18.351Z,1003.54
2017-12-25T11:47:28.176Z,1003.59
2017-12-25T11:48:37.712Z,1003.53
2017-12-25T11:49:47.261Z,1003.53
2017-12-25T11:50:57.070Z,1003.49
2017-12-25T11:52:06.863Z,1003.46
2017-12-25T11:53:16.414Z,1003.47
2017-12-25T11:54:26.320Z,1003.42
2017-12-25T11:55:36.123Z,1003.42
2017-12-25T11:56:45.916Z,1003.39
2017-12-25T11:57:55.714Z,1003.35
2017-12-25T11:59:05.507Z,1003.34
2017-12-25T12:00:15.321Z,1003.29
2017-12-25T12:01:25.112Z,1003.33
2017-12-25T12:02:35.175Z,1003.27
2017-12-25T12:03:44.973Z,1003.28
2017-12-25T12:04:54.785Z,1003.26
2017-12-25T12:06:04.324Z,1003.27
2017-12-25T12:07:14.137Z,1003.27
2017-12-25T12:08:23.947Z,1003.26
2017-12-25T12:09:33.750Z,1003.27
2017-12-25T12:10:43.795Z,1003.25
2017-12-25T12:11:53.843Z,1003.21
2017-12-25T12:13:03.649Z,1003.22
2017-12-25T12:14:13.186Z,1003.21
2017-12-25T12:15:22.992Z,1003.2
2017-12-25T12:16:32.635Z,1003.2
2017-12-25T12:17:42.202Z,1003.17
2017-12-25T12:18:52.000Z,1003.16
2017-12-25T12:20:01.277Z,1003.14
2017-12-25T12:21:10.823Z,1003.13
2017-12-25T12:22:20.889Z,1003.13
2017-12-25T12:23:30.425Z,1003.08
2017-12-25T12:24:40.292Z,1003.05
2017-12-25T12:25:50.095Z,1003
2017-12-25T12:26:59.882Z,1003.03
2017-12-25T12:28:09.688Z,1003.02
2017-12-25T12:29:18.960Z,1002.99
2017-12-25T12:30:29.067Z,1003
2017-12-25T12:31:38.955Z,1002.99
2017-12-25T12:32:49.079Z,1002.98
2017-12-25T12:33:59.040Z,1002.98
2017-12-25T12:35:09.000Z,1002.97
2017-12-25T12:36:18.838Z,1002.97
2017-12-25T12:37:28.944Z,1002.94
2017-12-25T12:38:38.776Z,1002.97
2017-12-25T12:39:48.675Z,1002.92
2017-12-25T12:40:58.778Z,1002.9
2017-12-25T12:42:08.884Z,1002.89
2017-12-25T12:43:20.312Z,1002.85
2017-12-25T12:44:30.168Z,1002.86
2017-12-25T12:45:40.549Z,1002.84
2017-12-25T12:46:50.665Z,1002.83
2017-12-25T12:48:12.761Z,1002.79
2017-12-25T12:49:22.056Z,1002.78
2017-12-25T12:50:31.882Z,1002.75
2017-12-25T12:51:41.701Z,1002.78
2017-12-25T12:52:51.282Z,1002.73
2017-12-25T12:54:01.097Z,1002.74
2017-12-25T12:55:10.933Z,1002.75
2017-12-25T12:56:20.813Z,1002.71
2017-12-25T12:57:30.449Z,1002.68
2017-12-25T12:58:40.578Z,1002.68
2017-12-25T12:59:50.446Z,1002.67
2017-12-25T13:01:00.332Z,1002.65
2017-12-25T13:02:09.917Z,1002.63
2017-12-25T13:03:19.997Z,1002.6
2017-12-25T13:04:30.102Z,1002.57
2017-12-25T13:05:39.713Z,1002.56
2017-12-25T13:06:49.824Z,1002.54
2017-12-25T13:07:59.664Z,1002.55
2017-12-25T13:09:09.545Z,1002.56
2017-12-25T13:10:19.679Z,1002.5
2017-12-25T13:11:29.289Z,1002.55
2017-12-25T13:12:39.187Z,1002.54
2017-12-25T13:13:49.055Z,1002.53
2017-12-25T13:14:58.903Z,1002.59
2017-12-25T13:16:08.748Z,1002.57
2017-12-25T13:17:18.625Z,1002.54
2017-12-25T13:18:27.684Z,1002.53
2017-12-25T13:19:37.554Z,1002.53
2017-12-25T13:20:47.436Z,1002.57
2017-12-25T13:21:57.517Z,1002.51
2017-12-25T13:23:07.049Z,1002.53
2017-12-25T13:24:16.865Z,1002.49
2017-12-25T13:25:26.918Z,1002.48
2017-12-25T13:26:37.654Z,1002.51
2017-12-25T13:27:47.232Z,1002.45
2017-12-25T13:28:56.829Z,1002.39
2017-12-25T13:30:06.653Z,1002.39
2017-12-25T13:31:16.486Z,1002.36
2017-12-25T13:32:26.036Z,1002.32
2017-12-25T13:33:35.912Z,1002.28
2017-12-25T13:34:45.474Z,1002.28
2017-12-25T13:35:55.605Z,1002.31
2017-12-25T13:37:06.485Z,1002.28
2017-12-25T13:38:16.575Z,1002.29
2017-12-25T13:39:26.426Z,1002.31
2017-12-25T13:40:37.301Z,1002.32
2017-12-25T13:41:47.434Z,1002.3
2017-12-25T13:42:57.000Z,1002.34
2017-12-25T13:44:06.834Z,1002.28
2017-12-25T13:45:16.908Z,1002.33
2017-12-25T13:46:26.812Z,1002.34
2017-12-25T13:47:36.906Z,1002.28
2017-12-25T13:48:47.023Z,1002.23
2017-12-25T13:49:56.860Z,1002.22
2017-12-25T13:51:06.963Z,1002.23
2017-12-25T13:52:16.610Z,1002.22
2017-12-25T13:53:26.174Z,1002.23
2017-12-25T13:54:36.273Z,1002.2
2017-12-25T13:55:46.380Z,1002.23
2017-12-25T13:56:56.235Z,1002.18
2017-12-25T13:58:06.318Z,1002.2
2017-12-25T13:59:16.146Z,1002.16
2017-12-25T14:00:26.219Z,1002.18
2017-12-25T14:01:36.039Z,1002.15
2017-12-25T14:02:46.127Z,1002.15
2017-12-25T14:03:56.708Z,1002.15
2017-12-25T14:05:05.995Z,1002.11
2017-12-25T14:06:15.535Z,1002.11
2017-12-25T14:07:25.619Z,1002.08
2017-12-25T14:08:35.730Z,1002.06
2017-12-25T14:09:45.590Z,1002.07
2017-12-25T14:10:55.441Z,1002.1
2017-12-25T14:12:05.570Z,1002.08
2017-12-25T14:13:15.184Z,1002.06
2017-12-25T14:14:25.248Z,1002.05
2017-12-25T14:15:35.118Z,1002.05
2017-12-25T14:16:45.234Z,1002.03
2017-12-25T14:17:55.065Z,1002.02
2017-12-25T14:19:05.164Z,1002.02
2017-12-25T14:20:14.965Z,1002.04
2017-12-25T14:21:25.071Z,1002.02
2017-12-25T14:22:35.130Z,1002.03
2017-12-25T14:23:44.418Z,1002.06
2017-12-25T14:24:54.255Z,1002.02
2017-12-25T14:26:03.999Z,1002.02
2017-12-25T14:27:14.070Z,1001.99
2017-12-25T14:28:23.614Z,1001.99
2017-12-25T14:29:33.672Z,1001.98
2017-12-25T14:30:43.949Z,1001.99
2017-12-25T14:31:54.013Z,1001.94
2017-12-25T14:33:03.842Z,1001.95
2017-12-25T14:34:13.926Z,1001.97
2017-12-25T14:35:23.997Z,1001.97
2017-12-25T14:36:35.050Z,1002
2017-12-25T14:37:44.591Z,1001.98
2017-12-25T14:38:54.695Z,1002.02
2017-12-25T14:40:04.763Z,1001.99